sensor_id;sensor_type;location;lat;lon;timestamp;P1;durP1;ratioP1;P2;durP2;ratioP2
27145;SDS011;17980;51.744;7.190;2022-08-19T00:00:40;6.47;;;3.10;;
27145;SDS011;17980;51.744;7.190;2022-08-19T00:03:08;4.23;;;3.53;;
27145;SDS011;17980;51.744;7.190;2022-08-19T00:05:35;4.20;;;3.87;;
27145;SDS011;17980;51.744;7.190;2022-08-19T00:08:12;4.47;;;3.80;;
27145;SDS011;17980;51.744;7.190;2022-08-19T00:10:39;4.30;;;3.67;;
27145;SDS011;17980;51.744;7.190;2022-08-19T00:13:11;4.27;;;3.97;;
27145;SDS011;17980;51.744;7.190;2022-08-19T00:15:48;4.87;;;4.50;;
27145;SDS011;17980;51.744;7.190;2022-08-19T00:18:15;3.93;;;3.63;;
27145;SDS011;17980;51.744;7.190;2022-08-19T00:20:42;4.63;;;4.17;;
27145;SDS011;17980;51.744;7.190;2022-08-19T00:23:19;4.37;;;3.97;;
27145;SDS011;17980;51.744;7.190;2022-08-19T00:25:46;7.27;;;4.37;;
27145;SDS011;17980;51.744;7.190;2022-08-19T00:28:14;4.30;;;3.73;;
27145;SDS011;17980;51.744;7.190;2022-08-19T00:30:41;4.33;;;3.33;;
27145;SDS011;17980;51.744;7.190;2022-08-19T00:33:09;4.10;;;3.80;;
27145;SDS011;17980;51.744;7.190;2022-08-19T00:35:36;3.90;;;3.70;;
27145;SDS011;17980;51.744;7.190;2022-08-19T00:38:04;4.57;;;4.17;;
27145;SDS011;17980;51.744;7.190;2022-08-19T00:40:32;4.47;;;4.07;;
27145;SDS011;17980;51.744;7.190;2022-08-19T00:42:59;4.50;;;4.10;;
27145;SDS011;17980;51.744;7.190;2022-08-19T00:45:36;5.77;;;4.13;;
27145;SDS011;17980;51.744;7.190;2022-08-19T00:48:07;3.97;;;3.53;;
27145;SDS011;17980;51.744;7.190;2022-08-19T00:50:35;4.13;;;3.73;;
27145;SDS011;17980;51.744;7.190;2022-08-19T00:53:06;4.50;;;4.07;;
27145;SDS011;17980;51.744;7.190;2022-08-19T00:55:36;4.47;;;4.10;;
27145;SDS011;17980;51.744;7.190;2022-08-19T00:58:06;7.97;;;3.47;;
27145;SDS011;17980;51.744;7.190;2022-08-19T01:00:43;4.20;;;3.80;;
27145;SDS011;17980;51.744;7.190;2022-08-19T01:03:18;4.07;;;3.77;;
27145;SDS011;17980;51.744;7.190;2022-08-19T01:05:53;3.57;;;3.37;;
27145;SDS011;17980;51.744;7.190;2022-08-19T01:08:22;5.60;;;4.10;;
27145;SDS011;17980;51.744;7.190;2022-08-19T01:10:50;4.90;;;4.37;;
27145;SDS011;17980;51.744;7.190;2022-08-19T01:13:20;4.40;;;4.00;;
27145;SDS011;17980;51.744;7.190;2022-08-19T01:15:51;3.37;;;3.17;;
27145;SDS011;17980;51.744;7.190;2022-08-19T01:18:21;5.20;;;4.00;;
27145;SDS011;17980;51.744;7.190;2022-08-19T01:20:56;4.30;;;4.00;;
27145;SDS011;17980;51.744;7.190;2022-08-19T01:23:27;3.90;;;3.60;;
27145;SDS011;17980;51.744;7.190;2022-08-19T01:26:11;4.90;;;4.50;;
27145;SDS011;17980;51.744;7.190;2022-08-19T01:28:40;6.10;;;3.63;;
27145;SDS011;17980;51.744;7.190;2022-08-19T01:31:14;3.73;;;3.43;;
27145;SDS011;17980;51.744;7.190;2022-08-19T01:33:48;4.17;;;3.60;;
27145;SDS011;17980;51.744;7.190;2022-08-19T01:36:23;3.70;;;3.40;;
27145;SDS011;17980;51.744;7.190;2022-08-19T01:38:54;4.50;;;3.90;;
27145;SDS011;17980;51.744;7.190;2022-08-19T01:41:21;3.67;;;3.37;;
27145;SDS011;17980;51.744;7.190;2022-08-19T01:43:51;4.57;;;3.80;;
27145;SDS011;17980;51.744;7.190;2022-08-19T01:46:21;4.70;;;4.30;;
27145;SDS011;17980;51.744;7.190;2022-08-19T01:48:48;5.87;;;4.20;;
27145;SDS011;17980;51.744;7.190;2022-08-19T01:51:15;4.60;;;4.20;;
27145;SDS011;17980;51.744;7.190;2022-08-19T01:53:52;5.27;;;3.80;;
27145;SDS011;17980;51.744;7.190;2022-08-19T01:56:20;4.80;;;3.80;;
27145;SDS011;17980;51.744;7.190;2022-08-19T01:58:51;4.40;;;4.00;;
27145;SDS011;17980;51.744;7.190;2022-08-19T02:01:25;4.67;;;4.37;;
27145;SDS011;17980;51.744;7.190;2022-08-19T02:03:52;4.97;;;4.47;;
27145;SDS011;17980;51.744;7.190;2022-08-19T02:06:20;5.10;;;3.90;;
27145;SDS011;17980;51.744;7.190;2022-08-19T02:08:47;5.67;;;4.80;;
27145;SDS011;17980;51.744;7.190;2022-08-19T02:11:19;5.90;;;4.50;;
27145;SDS011;17980;51.744;7.190;2022-08-19T02:13:47;4.30;;;4.00;;
27145;SDS011;17980;51.744;7.190;2022-08-19T02:16:16;4.97;;;4.47;;
27145;SDS011;17980;51.744;7.190;2022-08-19T02:18:44;4.60;;;4.30;;
27145;SDS011;17980;51.744;7.190;2022-08-19T02:23:52;7.93;;;5.50;;
27145;SDS011;17980;51.744;7.190;2022-08-19T02:26:19;5.33;;;4.93;;
27145;SDS011;17980;51.744;7.190;2022-08-19T02:28:48;6.23;;;5.73;;
27145;SDS011;17980;51.744;7.190;2022-08-19T02:31:17;5.40;;;4.93;;
27145;SDS011;17980;51.744;7.190;2022-08-19T02:33:47;5.40;;;5.00;;
27145;SDS011;17980;51.744;7.190;2022-08-19T02:36:16;7.17;;;6.00;;
27145;SDS011;17980;51.744;7.190;2022-08-19T02:38:44;8.40;;;6.23;;
27145;SDS011;17980;51.744;7.190;2022-08-19T02:41:17;8.00;;;7.03;;
27145;SDS011;17980;51.744;7.190;2022-08-19T02:43:50;7.20;;;6.60;;
27145;SDS011;17980;51.744;7.190;2022-08-19T02:46:18;7.57;;;6.97;;
27145;SDS011;17980;51.744;7.190;2022-08-19T02:48:47;7.50;;;6.80;;
27145;SDS011;17980;51.744;7.190;2022-08-19T02:51:16;7.90;;;7.20;;
27145;SDS011;17980;51.744;7.190;2022-08-19T02:53:44;9.37;;;7.60;;
27145;SDS011;17980;51.744;7.190;2022-08-19T02:56:12;11.87;;;7.10;;
27145;SDS011;17980;51.744;7.190;2022-08-19T02:58:40;8.23;;;7.43;;
27145;SDS011;17980;51.744;7.190;2022-08-19T03:01:09;8.13;;;7.33;;
27145;SDS011;17980;51.744;7.190;2022-08-19T03:03:36;7.53;;;6.83;;
27145;SDS011;17980;51.744;7.190;2022-08-19T03:06:05;7.53;;;6.93;;
27145;SDS011;17980;51.744;7.190;2022-08-19T03:08:35;8.90;;;7.77;;
27145;SDS011;17980;51.744;7.190;2022-08-19T03:11:03;7.80;;;6.97;;
27145;SDS011;17980;51.744;7.190;2022-08-19T03:13:31;8.50;;;7.33;;
27145;SDS011;17980;51.744;7.190;2022-08-19T03:15:58;8.43;;;7.73;;
27145;SDS011;17980;51.744;7.190;2022-08-19T03:18:26;9.10;;;8.20;;
27145;SDS011;17980;51.744;7.190;2022-08-19T03:21:03;8.53;;;7.70;;
27145;SDS011;17980;51.744;7.190;2022-08-19T03:23:31;10.13;;;9.30;;
27145;SDS011;17980;51.744;7.190;2022-08-19T03:26:08;9.50;;;8.60;;
27145;SDS011;17980;51.744;7.190;2022-08-19T03:28:35;10.53;;;9.20;;
27145;SDS011;17980;51.744;7.190;2022-08-19T03:31:05;10.37;;;9.33;;
27145;SDS011;17980;51.744;7.190;2022-08-19T03:33:42;11.03;;;9.33;;
27145;SDS011;17980;51.744;7.190;2022-08-19T03:36:10;9.50;;;8.40;;
27145;SDS011;17980;51.744;7.190;2022-08-19T03:38:41;10.87;;;8.87;;
27145;SDS011;17980;51.744;7.190;2022-08-19T03:41:11;9.27;;;8.40;;
27145;SDS011;17980;51.744;7.190;2022-08-19T03:43:41;10.63;;;9.63;;
27145;SDS011;17980;51.744;7.190;2022-08-19T03:46:11;10.17;;;9.27;;
27145;SDS011;17980;51.744;7.190;2022-08-19T03:48:40;12.80;;;8.83;;
27145;SDS011;17980;51.744;7.190;2022-08-19T03:51:16;10.43;;;9.40;;
27145;SDS011;17980;51.744;7.190;2022-08-19T03:53:45;10.20;;;9.03;;
27145;SDS011;17980;51.744;7.190;2022-08-19T03:56:13;10.70;;;9.70;;
27145;SDS011;17980;51.744;7.190;2022-08-19T03:58:44;11.37;;;10.30;;
27145;SDS011;17980;51.744;7.190;2022-08-19T04:01:13;10.63;;;9.63;;
27145;SDS011;17980;51.744;7.190;2022-08-19T04:03:44;10.77;;;9.37;;
27145;SDS011;17980;51.744;7.190;2022-08-19T04:06:13;10.97;;;9.87;;
27145;SDS011;17980;51.744;7.190;2022-08-19T04:08:42;11.43;;;9.07;;
27145;SDS011;17980;51.744;7.190;2022-08-19T04:11:20;11.10;;;9.43;;
27145;SDS011;17980;51.744;7.190;2022-08-19T04:13:49;10.40;;;9.20;;
27145;SDS011;17980;51.744;7.190;2022-08-19T04:16:18;11.73;;;9.57;;
27145;SDS011;17980;51.744;7.190;2022-08-19T04:18:46;12.23;;;9.27;;
27145;SDS011;17980;51.744;7.190;2022-08-19T04:21:16;11.33;;;9.53;;
27145;SDS011;17980;51.744;7.190;2022-08-19T04:23:44;11.57;;;10.37;;
27145;SDS011;17980;51.744;7.190;2022-08-19T04:26:12;11.10;;;10.10;;
27145;SDS011;17980;51.744;7.190;2022-08-19T04:28:41;12.27;;;9.47;;
27145;SDS011;17980;51.744;7.190;2022-08-19T04:31:12;11.47;;;10.40;;
27145;SDS011;17980;51.744;7.190;2022-08-19T04:33:41;18.27;;;11.87;;
27145;SDS011;17980;51.744;7.190;2022-08-19T04:36:10;12.30;;;9.87;;
27145;SDS011;17980;51.744;7.190;2022-08-19T04:38:53;14.00;;;8.77;;
27145;SDS011;17980;51.744;7.190;2022-08-19T04:41:22;8.43;;;7.67;;
27145;SDS011;17980;51.744;7.190;2022-08-19T04:44:07;7.33;;;6.63;;
27145;SDS011;17980;51.744;7.190;2022-08-19T04:46:35;8.17;;;6.67;;
27145;SDS011;17980;51.744;7.190;2022-08-19T04:49:03;7.70;;;7.00;;
27145;SDS011;17980;51.744;7.190;2022-08-19T04:51:32;10.63;;;7.60;;
27145;SDS011;17980;51.744;7.190;2022-08-19T04:54:10;8.37;;;7.37;;
27145;SDS011;17980;51.744;7.190;2022-08-19T04:56:39;10.07;;;9.07;;
27145;SDS011;17980;51.744;7.190;2022-08-19T04:59:06;8.70;;;7.80;;
27145;SDS011;17980;51.744;7.190;2022-08-19T05:01:34;12.93;;;9.90;;
27145;SDS011;17980;51.744;7.190;2022-08-19T05:04:03;10.23;;;9.27;;
27145;SDS011;17980;51.744;7.190;2022-08-19T05:06:32;9.83;;;8.83;;
27145;SDS011;17980;51.744;7.190;2022-08-19T05:09:00;13.30;;;9.87;;
27145;SDS011;17980;51.744;7.190;2022-08-19T05:11:29;15.07;;;11.23;;
27145;SDS011;17980;51.744;7.190;2022-08-19T05:13:59;14.90;;;11.00;;
27145;SDS011;17980;51.744;7.190;2022-08-19T05:16:27;17.00;;;11.23;;
27145;SDS011;17980;51.744;7.190;2022-08-19T05:18:54;9.07;;;7.27;;
27145;SDS011;17980;51.744;7.190;2022-08-19T05:21:41;9.63;;;6.63;;
27145;SDS011;17980;51.744;7.190;2022-08-19T05:24:27;8.77;;;6.17;;
27145;SDS011;17980;51.744;7.190;2022-08-19T05:26:55;7.80;;;6.07;;
27145;SDS011;17980;51.744;7.190;2022-08-19T05:29:23;11.20;;;7.63;;
27145;SDS011;17980;51.744;7.190;2022-08-19T05:31:52;7.83;;;7.23;;
27145;SDS011;17980;51.744;7.190;2022-08-19T05:34:21;9.93;;;8.10;;
27145;SDS011;17980;51.744;7.190;2022-08-19T05:36:52;9.43;;;8.27;;
27145;SDS011;17980;51.744;7.190;2022-08-19T05:39:23;12.97;;;8.70;;
27145;SDS011;17980;51.744;7.190;2022-08-19T05:41:53;13.43;;;8.27;;
27145;SDS011;17980;51.744;7.190;2022-08-19T05:44:31;12.07;;;8.87;;
27145;SDS011;17980;51.744;7.190;2022-08-19T05:47:01;11.90;;;8.63;;
27145;SDS011;17980;51.744;7.190;2022-08-19T05:49:31;9.93;;;7.33;;
27145;SDS011;17980;51.744;7.190;2022-08-19T05:52:01;10.23;;;7.00;;
27145;SDS011;17980;51.744;7.190;2022-08-19T05:54:32;10.03;;;7.77;;
27145;SDS011;17980;51.744;7.190;2022-08-19T05:57:00;13.53;;;8.53;;
27145;SDS011;17980;51.744;7.190;2022-08-19T05:59:28;9.67;;;8.23;;
27145;SDS011;17980;51.744;7.190;2022-08-19T06:02:00;12.20;;;7.53;;
27145;SDS011;17980;51.744;7.190;2022-08-19T06:04:29;9.43;;;8.27;;
27145;SDS011;17980;51.744;7.190;2022-08-19T06:06:56;10.53;;;8.03;;
27145;SDS011;17980;51.744;7.190;2022-08-19T06:09:33;10.30;;;8.30;;
27145;SDS011;17980;51.744;7.190;2022-08-19T06:12:04;9.77;;;8.07;;
27145;SDS011;17980;51.744;7.190;2022-08-19T06:14:35;11.70;;;9.10;;
27145;SDS011;17980;51.744;7.190;2022-08-19T06:17:02;13.23;;;10.03;;
27145;SDS011;17980;51.744;7.190;2022-08-19T06:19:30;12.40;;;9.90;;
27145;SDS011;17980;51.744;7.190;2022-08-19T06:22:07;19.47;;;11.73;;
27145;SDS011;17980;51.744;7.190;2022-08-19T06:24:38;14.03;;;10.77;;
27145;SDS011;17980;51.744;7.190;2022-08-19T06:27:06;12.67;;;11.23;;
27145;SDS011;17980;51.744;7.190;2022-08-19T06:29:33;11.23;;;10.23;;
27145;SDS011;17980;51.744;7.190;2022-08-19T06:32:01;15.27;;;10.63;;
27145;SDS011;17980;51.744;7.190;2022-08-19T06:34:30;12.10;;;10.77;;
27145;SDS011;17980;51.744;7.190;2022-08-19T06:37:00;12.63;;;11.47;;
27145;SDS011;17980;51.744;7.190;2022-08-19T06:39:29;11.90;;;10.80;;
27145;SDS011;17980;51.744;7.190;2022-08-19T06:41:59;16.23;;;12.10;;
27145;SDS011;17980;51.744;7.190;2022-08-19T06:44:30;18.20;;;12.80;;
27145;SDS011;17980;51.744;7.190;2022-08-19T06:47:00;14.90;;;12.10;;
27145;SDS011;17980;51.744;7.190;2022-08-19T06:49:29;15.73;;;12.17;;
27145;SDS011;17980;51.744;7.190;2022-08-19T06:52:05;19.20;;;12.33;;
27145;SDS011;17980;51.744;7.190;2022-08-19T06:54:36;14.70;;;12.33;;
27145;SDS011;17980;51.744;7.190;2022-08-19T06:57:05;16.07;;;13.10;;
27145;SDS011;17980;51.744;7.190;2022-08-19T06:59:34;17.37;;;13.50;;
27145;SDS011;17980;51.744;7.190;2022-08-19T07:02:03;16.40;;;14.03;;
27145;SDS011;17980;51.744;7.190;2022-08-19T07:04:32;16.77;;;14.30;;
27145;SDS011;17980;51.744;7.190;2022-08-19T07:07:03;17.07;;;14.87;;
27145;SDS011;17980;51.744;7.190;2022-08-19T07:09:34;16.23;;;13.50;;
27145;SDS011;17980;51.744;7.190;2022-08-19T07:12:04;15.80;;;14.37;;
27145;SDS011;17980;51.744;7.190;2022-08-19T07:14:33;17.17;;;14.30;;
27145;SDS011;17980;51.744;7.190;2022-08-19T07:17:03;17.37;;;14.00;;
27145;SDS011;17980;51.744;7.190;2022-08-19T07:19:40;17.40;;;13.60;;
27145;SDS011;17980;51.744;7.190;2022-08-19T07:22:09;17.93;;;13.43;;
27145;SDS011;17980;51.744;7.190;2022-08-19T07:24:36;20.30;;;12.53;;
27145;SDS011;17980;51.744;7.190;2022-08-19T07:27:05;13.70;;;11.67;;
27145;SDS011;17980;51.744;7.190;2022-08-19T07:29:33;11.60;;;10.40;;
27145;SDS011;17980;51.744;7.190;2022-08-19T07:32:02;17.80;;;11.03;;
27145;SDS011;17980;51.744;7.190;2022-08-19T07:34:40;17.60;;;10.83;;
27145;SDS011;17980;51.744;7.190;2022-08-19T07:37:07;18.13;;;9.43;;
27145;SDS011;17980;51.744;7.190;2022-08-19T07:39:35;12.00;;;9.63;;
27145;SDS011;17980;51.744;7.190;2022-08-19T07:42:05;13.60;;;9.67;;
27145;SDS011;17980;51.744;7.190;2022-08-19T07:44:35;14.23;;;9.63;;
27145;SDS011;17980;51.744;7.190;2022-08-19T07:47:04;9.50;;;8.47;;
27145;SDS011;17980;51.744;7.190;2022-08-19T07:49:32;8.50;;;6.40;;
27145;SDS011;17980;51.744;7.190;2022-08-19T07:52:09;10.20;;;7.20;;
27145;SDS011;17980;51.744;7.190;2022-08-19T07:54:37;7.47;;;6.77;;
27145;SDS011;17980;51.744;7.190;2022-08-19T07:57:06;11.67;;;6.60;;
27145;SDS011;17980;51.744;7.190;2022-08-19T07:59:34;6.80;;;5.37;;
27145;SDS011;17980;51.744;7.190;2022-08-19T08:02:02;7.60;;;6.60;;
27145;SDS011;17980;51.744;7.190;2022-08-19T08:04:30;8.03;;;6.10;;
27145;SDS011;17980;51.744;7.190;2022-08-19T08:07:16;6.20;;;5.77;;
27145;SDS011;17980;51.744;7.190;2022-08-19T08:10:02;9.13;;;6.37;;
27145;SDS011;17980;51.744;7.190;2022-08-19T08:12:33;6.67;;;5.97;;
27145;SDS011;17980;51.744;7.190;2022-08-19T08:15:05;8.13;;;6.20;;
27145;SDS011;17980;51.744;7.190;2022-08-19T08:17:35;6.90;;;6.30;;
27145;SDS011;17980;51.744;7.190;2022-08-19T08:20:05;6.90;;;6.07;;
27145;SDS011;17980;51.744;7.190;2022-08-19T08:22:33;9.67;;;5.70;;
27145;SDS011;17980;51.744;7.190;2022-08-19T08:28:11;6.27;;;5.67;;
27145;SDS011;17980;51.744;7.190;2022-08-19T08:30:38;10.03;;;6.00;;
27145;SDS011;17980;51.744;7.190;2022-08-19T08:33:17;8.27;;;5.97;;
27145;SDS011;17980;51.744;7.190;2022-08-19T08:35:45;9.13;;;5.67;;
27145;SDS011;17980;51.744;7.190;2022-08-19T08:38:13;5.30;;;4.70;;
27145;SDS011;17980;51.744;7.190;2022-08-19T08:40:45;6.10;;;5.50;;
27145;SDS011;17980;51.744;7.190;2022-08-19T08:43:28;7.07;;;5.67;;
27145;SDS011;17980;51.744;7.190;2022-08-19T08:46:00;5.53;;;4.50;;
27145;SDS011;17980;51.744;7.190;2022-08-19T08:48:34;4.30;;;4.00;;
27145;SDS011;17980;51.744;7.190;2022-08-19T08:51:08;5.70;;;4.57;;
27145;SDS011;17980;51.744;7.190;2022-08-19T08:53:37;3.93;;;3.63;;
27145;SDS011;17980;51.744;7.190;2022-08-19T08:56:07;4.57;;;4.17;;
27145;SDS011;17980;51.744;7.190;2022-08-19T08:58:41;5.07;;;4.67;;
27145;SDS011;17980;51.744;7.190;2022-08-19T09:01:13;4.97;;;4.67;;
27145;SDS011;17980;51.744;7.190;2022-08-19T09:03:41;5.57;;;5.07;;
27145;SDS011;17980;51.744;7.190;2022-08-19T09:06:12;5.33;;;5.00;;
27145;SDS011;17980;51.744;7.190;2022-08-19T09:08:45;4.63;;;4.23;;
27145;SDS011;17980;51.744;7.190;2022-08-19T09:11:18;5.20;;;4.60;;
27145;SDS011;17980;51.744;7.190;2022-08-19T09:13:49;4.97;;;4.60;;
27145;SDS011;17980;51.744;7.190;2022-08-19T09:16:29;6.07;;;4.43;;
27145;SDS011;17980;51.744;7.190;2022-08-19T09:18:58;5.43;;;4.90;;
27145;SDS011;17980;51.744;7.190;2022-08-19T09:21:27;6.67;;;5.17;;
27145;SDS011;17980;51.744;7.190;2022-08-19T09:23:55;5.40;;;5.00;;
27145;SDS011;17980;51.744;7.190;2022-08-19T09:26:24;6.10;;;5.50;;
27145;SDS011;17980;51.744;7.190;2022-08-19T09:28:52;7.50;;;6.03;;
27145;SDS011;17980;51.744;7.190;2022-08-19T09:31:21;6.00;;;5.37;;
27145;SDS011;17980;51.744;7.190;2022-08-19T09:33:51;6.43;;;5.83;;
27145;SDS011;17980;51.744;7.190;2022-08-19T09:36:22;5.37;;;5.00;;
27145;SDS011;17980;51.744;7.190;2022-08-19T09:39:02;6.53;;;5.50;;
27145;SDS011;17980;51.744;7.190;2022-08-19T09:41:30;6.53;;;5.93;;
27145;SDS011;17980;51.744;7.190;2022-08-19T09:43:59;8.80;;;8.10;;
27145;SDS011;17980;51.744;7.190;2022-08-19T09:46:27;6.63;;;6.17;;
27145;SDS011;17980;51.744;7.190;2022-08-19T09:48:57;6.90;;;6.33;;
27145;SDS011;17980;51.744;7.190;2022-08-19T09:51:26;8.17;;;7.40;;
27145;SDS011;17980;51.744;7.190;2022-08-19T09:53:58;8.30;;;7.60;;
27145;SDS011;17980;51.744;7.190;2022-08-19T09:56:35;11.67;;;8.80;;
27145;SDS011;17980;51.744;7.190;2022-08-19T09:59:02;9.10;;;8.17;;
27145;SDS011;17980;51.744;7.190;2022-08-19T10:01:30;8.30;;;7.50;;
27145;SDS011;17980;51.744;7.190;2022-08-19T10:03:59;10.73;;;8.73;;
27145;SDS011;17980;51.744;7.190;2022-08-19T10:06:27;8.60;;;7.90;;
27145;SDS011;17980;51.744;7.190;2022-08-19T10:08:57;10.93;;;9.90;;
27145;SDS011;17980;51.744;7.190;2022-08-19T10:11:26;12.27;;;9.57;;
27145;SDS011;17980;51.744;7.190;2022-08-19T10:13:54;14.40;;;9.97;;
27145;SDS011;17980;51.744;7.190;2022-08-19T10:16:22;12.00;;;10.73;;
27145;SDS011;17980;51.744;7.190;2022-08-19T10:18:51;13.73;;;11.30;;
27145;SDS011;17980;51.744;7.190;2022-08-19T10:21:20;11.47;;;10.37;;
27145;SDS011;17980;51.744;7.190;2022-08-19T10:23:49;11.20;;;10.00;;
27145;SDS011;17980;51.744;7.190;2022-08-19T10:26:19;10.43;;;9.53;;
27145;SDS011;17980;51.744;7.190;2022-08-19T10:28:56;10.80;;;9.83;;
27145;SDS011;17980;51.744;7.190;2022-08-19T10:31:24;9.17;;;8.50;;
27145;SDS011;17980;51.744;7.190;2022-08-19T10:33:55;7.37;;;6.77;;
27145;SDS011;17980;51.744;7.190;2022-08-19T10:36:25;7.47;;;6.97;;
27145;SDS011;17980;51.744;7.190;2022-08-19T10:38:54;9.13;;;7.60;;
27145;SDS011;17980;51.744;7.190;2022-08-19T10:41:25;8.20;;;7.40;;
27145;SDS011;17980;51.744;7.190;2022-08-19T10:44:04;7.13;;;6.50;;
27145;SDS011;17980;51.744;7.190;2022-08-19T10:46:37;6.93;;;6.23;;
27145;SDS011;17980;51.744;7.190;2022-08-19T10:49:15;7.93;;;7.03;;
27145;SDS011;17980;51.744;7.190;2022-08-19T10:51:43;7.13;;;6.63;;
27145;SDS011;17980;51.744;7.190;2022-08-19T10:54:29;13.20;;;7.27;;
27145;SDS011;17980;51.744;7.190;2022-08-19T10:57:18;9.90;;;7.10;;
27145;SDS011;17980;51.744;7.190;2022-08-19T10:59:55;8.23;;;6.40;;
27145;SDS011;17980;51.744;7.190;2022-08-19T11:02:23;9.20;;;8.40;;
27145;SDS011;17980;51.744;7.190;2022-08-19T11:05:02;7.00;;;6.40;;
27145;SDS011;17980;51.744;7.190;2022-08-19T11:07:29;13.50;;;6.67;;
27145;SDS011;17980;51.744;7.190;2022-08-19T11:09:57;7.87;;;7.17;;
27145;SDS011;17980;51.744;7.190;2022-08-19T11:12:24;7.37;;;6.67;;
27145;SDS011;17980;51.744;7.190;2022-08-19T11:14:53;7.73;;;6.93;;
27145;SDS011;17980;51.744;7.190;2022-08-19T11:17:30;7.50;;;5.93;;
27145;SDS011;17980;51.744;7.190;2022-08-19T11:19:57;7.03;;;6.37;;
27145;SDS011;17980;51.744;7.190;2022-08-19T11:22:27;6.83;;;6.20;;
27145;SDS011;17980;51.744;7.190;2022-08-19T11:25:05;12.53;;;6.47;;
27145;SDS011;17980;51.744;7.190;2022-08-19T11:27:34;6.77;;;6.00;;
27145;SDS011;17980;51.744;7.190;2022-08-19T11:30:14;6.60;;;6.03;;
27145;SDS011;17980;51.744;7.190;2022-08-19T11:32:41;6.37;;;5.77;;
27145;SDS011;17980;51.744;7.190;2022-08-19T11:35:18;6.87;;;5.23;;
27145;SDS011;17980;51.744;7.190;2022-08-19T11:37:46;5.27;;;4.77;;
27145;SDS011;17980;51.744;7.190;2022-08-19T11:40:13;5.27;;;4.87;;
27145;SDS011;17980;51.744;7.190;2022-08-19T11:42:41;5.90;;;4.20;;
27145;SDS011;17980;51.744;7.190;2022-08-19T11:45:17;5.33;;;4.83;;
27145;SDS011;17980;51.744;7.190;2022-08-19T11:47:45;7.30;;;5.03;;
27145;SDS011;17980;51.744;7.190;2022-08-19T11:50:13;6.70;;;6.10;;
27145;SDS011;17980;51.744;7.190;2022-08-19T11:52:41;8.00;;;7.20;;
27145;SDS011;17980;51.744;7.190;2022-08-19T12:01:18;7.63;;;7.00;;
27145;SDS011;17980;51.744;7.190;2022-08-19T12:03:56;8.13;;;7.40;;
27145;SDS011;17980;51.744;7.190;2022-08-19T12:06:24;7.70;;;6.47;;
27145;SDS011;17980;51.744;7.190;2022-08-19T12:09:03;9.77;;;8.90;;
27145;SDS011;17980;51.744;7.190;2022-08-19T12:11:31;7.90;;;6.70;;
27145;SDS011;17980;51.744;7.190;2022-08-19T12:14:10;7.73;;;6.80;;
27145;SDS011;17980;51.744;7.190;2022-08-19T12:16:39;10.10;;;9.07;;
27145;SDS011;17980;51.744;7.190;2022-08-19T12:19:07;7.70;;;7.00;;
27145;SDS011;17980;51.744;7.190;2022-08-19T12:21:35;9.83;;;8.17;;
27145;SDS011;17980;51.744;7.190;2022-08-19T12:24:12;9.57;;;8.40;;
27145;SDS011;17980;51.744;7.190;2022-08-19T12:26:39;8.47;;;7.57;;
27145;SDS011;17980;51.744;7.190;2022-08-19T12:29:08;7.13;;;6.57;;
27145;SDS011;17980;51.744;7.190;2022-08-19T12:31:35;7.43;;;6.83;;
27145;SDS011;17980;51.744;7.190;2022-08-19T12:34:02;7.67;;;6.97;;
27145;SDS011;17980;51.744;7.190;2022-08-19T12:36:29;8.10;;;7.50;;
27145;SDS011;17980;51.744;7.190;2022-08-19T12:38:58;8.57;;;6.50;;
27145;SDS011;17980;51.744;7.190;2022-08-19T12:41:35;7.17;;;6.50;;
27145;SDS011;17980;51.744;7.190;2022-08-19T12:44:03;7.90;;;6.60;;
27145;SDS011;17980;51.744;7.190;2022-08-19T12:46:40;8.63;;;7.20;;
27145;SDS011;17980;51.744;7.190;2022-08-19T12:49:07;7.93;;;6.50;;
27145;SDS011;17980;51.744;7.190;2022-08-19T12:51:35;7.00;;;6.50;;
27145;SDS011;17980;51.744;7.190;2022-08-19T12:54:12;9.63;;;6.20;;
27145;SDS011;17980;51.744;7.190;2022-08-19T12:56:40;6.53;;;4.57;;
27145;SDS011;17980;51.744;7.190;2022-08-19T12:59:11;5.10;;;4.60;;
27145;SDS011;17980;51.744;7.190;2022-08-19T13:01:41;5.20;;;4.63;;
27145;SDS011;17980;51.744;7.190;2022-08-19T13:04:09;4.70;;;4.30;;
27145;SDS011;17980;51.744;7.190;2022-08-19T13:06:37;4.53;;;4.13;;
27145;SDS011;17980;51.744;7.190;2022-08-19T13:09:04;4.03;;;3.70;;
27145;SDS011;17980;51.744;7.190;2022-08-19T13:11:32;4.50;;;3.33;;
27145;SDS011;17980;51.744;7.190;2022-08-19T13:14:09;4.10;;;3.57;;
27145;SDS011;17980;51.744;7.190;2022-08-19T13:16:37;3.60;;;3.40;;
27145;SDS011;17980;51.744;7.190;2022-08-19T13:19:04;2.73;;;2.53;;
27145;SDS011;17980;51.744;7.190;2022-08-19T13:21:33;3.50;;;3.20;;
27145;SDS011;17980;51.744;7.190;2022-08-19T13:24:00;3.83;;;3.03;;
27145;SDS011;17980;51.744;7.190;2022-08-19T13:26:28;4.10;;;2.90;;
27145;SDS011;17980;51.744;7.190;2022-08-19T13:29:05;5.30;;;2.73;;
27145;SDS011;17980;51.744;7.190;2022-08-19T13:31:50;3.10;;;2.80;;
27145;SDS011;17980;51.744;7.190;2022-08-19T13:34:36;3.13;;;2.83;;
27145;SDS011;17980;51.744;7.190;2022-08-19T13:37:03;19.90;;;3.50;;
27145;SDS011;17980;51.744;7.190;2022-08-19T13:39:40;4.10;;;2.20;;
27145;SDS011;17980;51.744;7.190;2022-08-19T13:42:08;3.27;;;2.63;;
27145;SDS011;17980;51.744;7.190;2022-08-19T13:44:45;3.30;;;2.50;;
27145;SDS011;17980;51.744;7.190;2022-08-19T13:47:13;3.90;;;2.60;;
27145;SDS011;17980;51.744;7.190;2022-08-19T13:49:40;4.20;;;2.80;;
27145;SDS011;17980;51.744;7.190;2022-08-19T13:52:08;4.27;;;2.53;;
27145;SDS011;17980;51.744;7.190;2022-08-19T13:54:45;5.73;;;1.90;;
27145;SDS011;17980;51.744;7.190;2022-08-19T13:57:13;4.83;;;2.47;;
27145;SDS011;17980;51.744;7.190;2022-08-19T13:59:44;2.90;;;2.37;;
27145;SDS011;17980;51.744;7.190;2022-08-19T14:02:11;2.30;;;2.10;;
27145;SDS011;17980;51.744;7.190;2022-08-19T14:04:48;2.97;;;1.80;;
27145;SDS011;17980;51.744;7.190;2022-08-19T14:07:16;3.20;;;2.10;;
27145;SDS011;17980;51.744;7.190;2022-08-19T14:09:43;3.77;;;2.03;;
27145;SDS011;17980;51.744;7.190;2022-08-19T14:12:10;3.70;;;2.30;;
27145;SDS011;17980;51.744;7.190;2022-08-19T14:14:37;2.33;;;2.00;;
27145;SDS011;17980;51.744;7.190;2022-08-19T14:17:06;1.80;;;1.70;;
27145;SDS011;17980;51.744;7.190;2022-08-19T14:19:34;2.83;;;1.90;;
27145;SDS011;17980;51.744;7.190;2022-08-19T14:22:02;4.77;;;2.00;;
27145;SDS011;17980;51.744;7.190;2022-08-19T14:24:31;2.50;;;2.00;;
27145;SDS011;17980;51.744;7.190;2022-08-19T14:26:58;3.10;;;2.20;;
27145;SDS011;17980;51.744;7.190;2022-08-19T14:29:26;4.57;;;2.03;;
27145;SDS011;17980;51.744;7.190;2022-08-19T14:31:55;2.20;;;2.00;;
27145;SDS011;17980;51.744;7.190;2022-08-19T14:34:24;3.10;;;1.87;;
27145;SDS011;17980;51.744;7.190;2022-08-19T14:36:52;2.43;;;2.00;;
27145;SDS011;17980;51.744;7.190;2022-08-19T14:39:20;3.30;;;1.80;;
27145;SDS011;17980;51.744;7.190;2022-08-19T14:41:47;5.83;;;2.27;;
27145;SDS011;17980;51.744;7.190;2022-08-19T14:44:14;3.60;;;1.83;;
27145;SDS011;17980;51.744;7.190;2022-08-19T14:46:54;3.13;;;2.20;;
27145;SDS011;17980;51.744;7.190;2022-08-19T14:49:21;7.37;;;2.77;;
27145;SDS011;17980;51.744;7.190;2022-08-19T14:51:51;4.90;;;3.07;;
27145;SDS011;17980;51.744;7.190;2022-08-19T14:54:22;4.17;;;2.80;;
27145;SDS011;17980;51.744;7.190;2022-08-19T14:56:49;5.83;;;3.87;;
27145;SDS011;17980;51.744;7.190;2022-08-19T14:59:17;7.30;;;3.33;;
27145;SDS011;17980;51.744;7.190;2022-08-19T15:01:44;6.60;;;3.97;;
27145;SDS011;17980;51.744;7.190;2022-08-19T15:04:13;6.73;;;4.50;;
27145;SDS011;17980;51.744;7.190;2022-08-19T15:06:41;6.30;;;4.20;;
27145;SDS011;17980;51.744;7.190;2022-08-19T15:09:08;5.27;;;4.23;;
27145;SDS011;17980;51.744;7.190;2022-08-19T15:11:36;7.37;;;4.53;;
27145;SDS011;17980;51.744;7.190;2022-08-19T15:14:13;5.43;;;5.03;;